Ashfield, MA

11:35 AM EDT on October 17, 2019 (GMT -0400)
Bear Swamp Orchard | | Change Station
Active Advisory: Wind Advisory

Elev 1500 ft 42.55 °N, 72.83 °W | Updated 24 seconds ago

Rain
Rain
42.8 °F
Feels Like 43 °F
N
0
Wind Variable Wind from NNW
Gusts 12.0 mph

Today
High -- | Low -- °F
--% Chance of Precip.
Yesterday
High -- | Low -- °F
Precip. -- in
Pressure 29.05 in
Visibility 9.0 miles
Clouds Mostly Cloudy 2400 ft
Overcast 3400 ft
Windchill 43 °F
Dew Point 42 °F
Humidity 96%
Rainfall 3.70 in
Snow Depth Not available.
7:06 AM 6:06 PM
Waning Gibbous, 87% visible
METAR KAQW 171452Z AUTO 27019G27KT 9SM -RA BKN024 OVC034 08/04 A2905 RMK AO2 PK WND 29033/1422 SLP838 P0008 60029 T00780044 55003
Pressure 29.05 in
Visibility 9.0 miles
Clouds Mostly Cloudy 2400 ft
Overcast 3400 ft
Windchill 43 °F
Dew Point 42 °F
Humidity 96%
Rainfall 3.70 in
Snow Depth Not available.
7:06 AM 6:06 PM
Waning Gibbous, 87% visible
METAR KAQW 171452Z AUTO 27019G27KT 9SM -RA BKN024 OVC034 08/04 A2905 RMK AO2 PK WND 29033/1422 SLP838 P0008 60029 T00780044 55003

Get Your Daily Forecast Email!

Thanks for signing up!

Be on the lookout for a verification email in your inbox.

You'll start receiving severe weather alerts in your inbox..

×

10-Day Weather Forecast

Almanac

Astronomy

Oct. 17, 2019 Rise Set
Actual Time
Civil Twilight
Nautical Twilight
Astronomical Twilight
Moon
Length of Visible Light
Length of Day
Tomorrow will be .
, % of the Moon is Illuminated

Today's Extremes

State Highs State Lows

Community

WunderPhotos

Category 6

Welcome to Category 6. This is the collective home for Weather Underground's featured writeups by Dr. Jeff Masters (right), Bob Henson (left), Chris Burt, and other regular contributors.

Nearby

Air Quality

  Air Quality AQ Index Pollutant
Not available.

Snow Depth

Station Depth Elevation

Earthquake Activity

City Distance Mag. Time & Date
Minimum magnitude displayed is 2.5.

Coastal Water Temperatures

Place Temperature

Stations

Nearby Weather Stations

Station Location Temp. Windchill Dew Point Humidity Wind Precip. Elev Updated Type
                   

Watches & Warnings

Wind Advisory
Issued: 8:14 AM EDT Oct. 17, 2019 – National Weather Service

... Wind Advisory remains in effect until 6 PM EDT this evening...

* what... southwest winds 20 to 30 mph with gusts between 45 and 55
mph expected.

* Where... all of southern New England northwest of the Cape Cod
canal.

* When... until 6 PM EDT this evening.

* Impacts... the potential will continue for scattered tree damage
as well as scattered power outages. Travel will be difficult,
especially for high profile vehicles.

Precautionary/preparedness actions...

Use extra caution when driving, especially if operating a high
profile vehicle. Secure outdoor objects.